sensor_id;sensor_type;location;lat;lon;timestamp;P1;durP1;ratioP1;P2;durP2;ratioP2
14247;SDS011;7208;49.826;6.004;2022-07-23T00:01:30;14.77;;;12.17;;
14247;SDS011;7208;49.826;6.004;2022-07-23T00:03:56;13.43;;;12.10;;
14247;SDS011;7208;49.826;6.004;2022-07-23T00:06:22;13.13;;;11.90;;
14247;SDS011;7208;49.826;6.004;2022-07-23T00:08:48;13.87;;;11.90;;
14247;SDS011;7208;49.826;6.004;2022-07-23T00:11:14;16.27;;;13.20;;
14247;SDS011;7208;49.826;6.004;2022-07-23T00:13:41;16.67;;;12.90;;
14247;SDS011;7208;49.826;6.004;2022-07-23T00:16:07;17.33;;;13.10;;
14247;SDS011;7208;49.826;6.004;2022-07-23T00:18:33;14.37;;;12.20;;
14247;SDS011;7208;49.826;6.004;2022-07-23T00:20:59;16.70;;;14.47;;
14247;SDS011;7208;49.826;6.004;2022-07-23T00:23:25;13.83;;;12.40;;
14247;SDS011;7208;49.826;6.004;2022-07-23T00:25:53;16.90;;;12.83;;
14247;SDS011;7208;49.826;6.004;2022-07-23T00:28:19;14.77;;;12.10;;
14247;SDS011;7208;49.826;6.004;2022-07-23T00:30:45;14.40;;;11.93;;
14247;SDS011;7208;49.826;6.004;2022-07-23T00:33:11;12.73;;;11.47;;
14247;SDS011;7208;49.826;6.004;2022-07-23T00:35:38;14.60;;;12.13;;
14247;SDS011;7208;49.826;6.004;2022-07-23T00:38:06;14.77;;;13.33;;
14247;SDS011;7208;49.826;6.004;2022-07-23T00:40:32;20.93;;;14.83;;
14247;SDS011;7208;49.826;6.004;2022-07-23T00:42:58;17.33;;;14.33;;
14247;SDS011;7208;49.826;6.004;2022-07-23T00:45:24;18.23;;;15.03;;
14247;SDS011;7208;49.826;6.004;2022-07-23T00:47:51;20.93;;;14.13;;
14247;SDS011;7208;49.826;6.004;2022-07-23T00:50:17;17.13;;;13.57;;
14247;SDS011;7208;49.826;6.004;2022-07-23T00:52:43;15.13;;;13.33;;
14247;SDS011;7208;49.826;6.004;2022-07-23T00:55:10;16.20;;;13.97;;
14247;SDS011;7208;49.826;6.004;2022-07-23T00:57:36;22.67;;;15.47;;
14247;SDS011;7208;49.826;6.004;2022-07-23T01:00:03;21.87;;;14.87;;
14247;SDS011;7208;49.826;6.004;2022-07-23T01:02:30;18.03;;;14.90;;
14247;SDS011;7208;49.826;6.004;2022-07-23T01:04:56;17.07;;;15.13;;
14247;SDS011;7208;49.826;6.004;2022-07-23T01:07:22;17.90;;;14.77;;
14247;SDS011;7208;49.826;6.004;2022-07-23T01:09:49;18.80;;;15.10;;
14247;SDS011;7208;49.826;6.004;2022-07-23T01:12:16;17.17;;;15.37;;
14247;SDS011;7208;49.826;6.004;2022-07-23T01:14:42;20.20;;;14.57;;
14247;SDS011;7208;49.826;6.004;2022-07-23T01:17:08;20.87;;;14.10;;
14247;SDS011;7208;49.826;6.004;2022-07-23T01:19:34;22.77;;;17.13;;
14247;SDS011;7208;49.826;6.004;2022-07-23T01:22:01;20.93;;;16.33;;
14247;SDS011;7208;49.826;6.004;2022-07-23T01:24:28;22.20;;;16.40;;
14247;SDS011;7208;49.826;6.004;2022-07-23T01:26:54;17.83;;;15.73;;
14247;SDS011;7208;49.826;6.004;2022-07-23T01:29:20;24.37;;;16.93;;
14247;SDS011;7208;49.826;6.004;2022-07-23T01:31:46;17.87;;;14.97;;
14247;SDS011;7208;49.826;6.004;2022-07-23T01:34:12;19.57;;;15.27;;
14247;SDS011;7208;49.826;6.004;2022-07-23T01:36:38;20.47;;;15.87;;
14247;SDS011;7208;49.826;6.004;2022-07-23T01:39:05;21.90;;;15.70;;
14247;SDS011;7208;49.826;6.004;2022-07-23T01:41:31;17.50;;;14.03;;
14247;SDS011;7208;49.826;6.004;2022-07-23T01:43:58;18.07;;;14.03;;
14247;SDS011;7208;49.826;6.004;2022-07-23T01:46:24;16.93;;;15.07;;
14247;SDS011;7208;49.826;6.004;2022-07-23T01:48:50;20.00;;;15.40;;
14247;SDS011;7208;49.826;6.004;2022-07-23T01:51:16;18.30;;;15.17;;
14247;SDS011;7208;49.826;6.004;2022-07-23T01:53:42;18.13;;;15.70;;
14247;SDS011;7208;49.826;6.004;2022-07-23T01:56:08;20.67;;;15.43;;
14247;SDS011;7208;49.826;6.004;2022-07-23T01:58:34;21.10;;;16.60;;
14247;SDS011;7208;49.826;6.004;2022-07-23T02:01:00;20.00;;;15.60;;
14247;SDS011;7208;49.826;6.004;2022-07-23T02:03:27;19.70;;;15.27;;
14247;SDS011;7208;49.826;6.004;2022-07-23T02:05:53;22.73;;;16.37;;
14247;SDS011;7208;49.826;6.004;2022-07-23T02:08:19;18.97;;;14.93;;
14247;SDS011;7208;49.826;6.004;2022-07-23T02:10:45;19.50;;;15.37;;
14247;SDS011;7208;49.826;6.004;2022-07-23T02:13:12;18.30;;;15.87;;
14247;SDS011;7208;49.826;6.004;2022-07-23T02:15:38;23.30;;;15.40;;
14247;SDS011;7208;49.826;6.004;2022-07-23T02:18:04;25.97;;;16.70;;
14247;SDS011;7208;49.826;6.004;2022-07-23T02:20:30;22.97;;;16.53;;
14247;SDS011;7208;49.826;6.004;2022-07-23T02:22:56;24.23;;;16.33;;
14247;SDS011;7208;49.826;6.004;2022-07-23T02:25:22;23.43;;;16.90;;
14247;SDS011;7208;49.826;6.004;2022-07-23T02:27:48;22.37;;;17.10;;
14247;SDS011;7208;49.826;6.004;2022-07-23T02:30:14;25.40;;;18.13;;
14247;SDS011;7208;49.826;6.004;2022-07-23T02:32:40;25.30;;;17.53;;
14247;SDS011;7208;49.826;6.004;2022-07-23T02:35:06;22.07;;;16.97;;
14247;SDS011;7208;49.826;6.004;2022-07-23T02:37:32;22.20;;;17.83;;
14247;SDS011;7208;49.826;6.004;2022-07-23T02:39:58;23.93;;;16.93;;
14247;SDS011;7208;49.826;6.004;2022-07-23T02:42:24;25.30;;;18.43;;
14247;SDS011;7208;49.826;6.004;2022-07-23T02:44:51;26.20;;;18.17;;
14247;SDS011;7208;49.826;6.004;2022-07-23T02:47:17;29.07;;;17.97;;
14247;SDS011;7208;49.826;6.004;2022-07-23T02:49:43;26.37;;;19.33;;
14247;SDS011;7208;49.826;6.004;2022-07-23T02:52:09;27.27;;;18.97;;
14247;SDS011;7208;49.826;6.004;2022-07-23T02:54:36;26.57;;;19.00;;
14247;SDS011;7208;49.826;6.004;2022-07-23T02:57:02;25.90;;;18.73;;
14247;SDS011;7208;49.826;6.004;2022-07-23T02:59:28;24.73;;;18.57;;
14247;SDS011;7208;49.826;6.004;2022-07-23T03:01:54;25.83;;;17.93;;
14247;SDS011;7208;49.826;6.004;2022-07-23T03:04:20;27.13;;;18.90;;
14247;SDS011;7208;49.826;6.004;2022-07-23T03:06:46;24.43;;;19.27;;
14247;SDS011;7208;49.826;6.004;2022-07-23T03:09:12;30.27;;;19.53;;
14247;SDS011;7208;49.826;6.004;2022-07-23T03:11:38;26.30;;;18.43;;
14247;SDS011;7208;49.826;6.004;2022-07-23T03:14:04;32.90;;;19.17;;
14247;SDS011;7208;49.826;6.004;2022-07-23T03:16:30;26.40;;;19.27;;
14247;SDS011;7208;49.826;6.004;2022-07-23T03:18:56;31.50;;;20.00;;
14247;SDS011;7208;49.826;6.004;2022-07-23T03:21:23;31.70;;;19.57;;
14247;SDS011;7208;49.826;6.004;2022-07-23T03:23:49;28.50;;;19.17;;
14247;SDS011;7208;49.826;6.004;2022-07-23T03:26:15;29.20;;;19.17;;
14247;SDS011;7208;49.826;6.004;2022-07-23T03:28:41;25.77;;;19.17;;
14247;SDS011;7208;49.826;6.004;2022-07-23T03:31:07;30.10;;;19.37;;
14247;SDS011;7208;49.826;6.004;2022-07-23T03:33:33;28.17;;;18.60;;
14247;SDS011;7208;49.826;6.004;2022-07-23T03:35:59;26.17;;;19.13;;
14247;SDS011;7208;49.826;6.004;2022-07-23T03:38:25;26.27;;;17.60;;
14247;SDS011;7208;49.826;6.004;2022-07-23T03:40:51;30.43;;;18.53;;
14247;SDS011;7208;49.826;6.004;2022-07-23T03:43:17;26.43;;;18.90;;
14247;SDS011;7208;49.826;6.004;2022-07-23T03:45:43;25.33;;;18.97;;
14247;SDS011;7208;49.826;6.004;2022-07-23T03:48:09;27.33;;;18.43;;
14247;SDS011;7208;49.826;6.004;2022-07-23T03:50:35;26.57;;;17.83;;
14247;SDS011;7208;49.826;6.004;2022-07-23T03:53:02;32.23;;;20.27;;
14247;SDS011;7208;49.826;6.004;2022-07-23T03:55:30;30.17;;;18.43;;
14247;SDS011;7208;49.826;6.004;2022-07-23T03:57:56;27.73;;;18.97;;
14247;SDS011;7208;49.826;6.004;2022-07-23T04:00:22;32.23;;;19.17;;
14247;SDS011;7208;49.826;6.004;2022-07-23T04:02:48;36.33;;;20.57;;
14247;SDS011;7208;49.826;6.004;2022-07-23T04:05:14;31.77;;;20.50;;
14247;SDS011;7208;49.826;6.004;2022-07-23T04:07:40;36.27;;;20.07;;
14247;SDS011;7208;49.826;6.004;2022-07-23T04:10:06;32.20;;;20.93;;
14247;SDS011;7208;49.826;6.004;2022-07-23T04:12:33;31.70;;;19.77;;
14247;SDS011;7208;49.826;6.004;2022-07-23T04:14:59;32.93;;;20.47;;
14247;SDS011;7208;49.826;6.004;2022-07-23T04:17:25;31.30;;;20.40;;
14247;SDS011;7208;49.826;6.004;2022-07-23T04:19:51;28.93;;;19.20;;
14247;SDS011;7208;49.826;6.004;2022-07-23T04:22:17;33.90;;;19.47;;
14247;SDS011;7208;49.826;6.004;2022-07-23T04:24:43;37.80;;;21.83;;
14247;SDS011;7208;49.826;6.004;2022-07-23T04:27:09;33.87;;;21.20;;
14247;SDS011;7208;49.826;6.004;2022-07-23T04:29:35;44.40;;;23.30;;
14247;SDS011;7208;49.826;6.004;2022-07-23T04:32:01;36.47;;;21.40;;
14247;SDS011;7208;49.826;6.004;2022-07-23T04:34:27;36.73;;;20.83;;
14247;SDS011;7208;49.826;6.004;2022-07-23T04:36:53;36.30;;;20.67;;
14247;SDS011;7208;49.826;6.004;2022-07-23T04:39:19;35.00;;;20.03;;
14247;SDS011;7208;49.826;6.004;2022-07-23T04:41:46;35.43;;;20.37;;
14247;SDS011;7208;49.826;6.004;2022-07-23T04:44:12;36.23;;;20.90;;
14247;SDS011;7208;49.826;6.004;2022-07-23T04:46:38;29.53;;;18.20;;
14247;SDS011;7208;49.826;6.004;2022-07-23T04:49:04;38.77;;;20.73;;
14247;SDS011;7208;49.826;6.004;2022-07-23T04:51:30;34.43;;;20.67;;
14247;SDS011;7208;49.826;6.004;2022-07-23T04:53:56;32.80;;;19.60;;
14247;SDS011;7208;49.826;6.004;2022-07-23T04:56:22;37.43;;;20.27;;
14247;SDS011;7208;49.826;6.004;2022-07-23T04:58:48;34.27;;;20.33;;
14247;SDS011;7208;49.826;6.004;2022-07-23T05:01:14;29.90;;;19.53;;
14247;SDS011;7208;49.826;6.004;2022-07-23T05:03:40;33.00;;;20.00;;
14247;SDS011;7208;49.826;6.004;2022-07-23T05:06:06;29.07;;;19.00;;
14247;SDS011;7208;49.826;6.004;2022-07-23T05:08:32;31.13;;;19.93;;
14247;SDS011;7208;49.826;6.004;2022-07-23T05:10:58;34.23;;;20.00;;
14247;SDS011;7208;49.826;6.004;2022-07-23T05:13:24;27.17;;;19.03;;
14247;SDS011;7208;49.826;6.004;2022-07-23T05:15:51;30.80;;;19.13;;
14247;SDS011;7208;49.826;6.004;2022-07-23T05:18:17;32.17;;;19.13;;
14247;SDS011;7208;49.826;6.004;2022-07-23T05:20:43;30.77;;;18.53;;
14247;SDS011;7208;49.826;6.004;2022-07-23T05:23:09;29.73;;;18.17;;
14247;SDS011;7208;49.826;6.004;2022-07-23T05:25:35;33.30;;;19.53;;
14247;SDS011;7208;49.826;6.004;2022-07-23T05:28:01;28.70;;;18.47;;
14247;SDS011;7208;49.826;6.004;2022-07-23T05:30:27;32.30;;;20.23;;
14247;SDS011;7208;49.826;6.004;2022-07-23T05:32:53;26.47;;;18.63;;
14247;SDS011;7208;49.826;6.004;2022-07-23T05:35:19;28.97;;;18.87;;
14247;SDS011;7208;49.826;6.004;2022-07-23T05:37:45;29.03;;;19.63;;
14247;SDS011;7208;49.826;6.004;2022-07-23T05:40:12;27.93;;;18.90;;
14247;SDS011;7208;49.826;6.004;2022-07-23T05:42:38;22.20;;;16.23;;
14247;SDS011;7208;49.826;6.004;2022-07-23T05:45:05;28.87;;;18.67;;
14247;SDS011;7208;49.826;6.004;2022-07-23T05:47:44;29.17;;;18.63;;
14247;SDS011;7208;49.826;6.004;2022-07-23T05:50:10;28.90;;;18.27;;
14247;SDS011;7208;49.826;6.004;2022-07-23T05:52:37;28.23;;;18.93;;
14247;SDS011;7208;49.826;6.004;2022-07-23T05:55:03;28.03;;;18.60;;
14247;SDS011;7208;49.826;6.004;2022-07-23T05:57:29;26.50;;;19.30;;
14247;SDS011;7208;49.826;6.004;2022-07-23T05:59:55;25.60;;;18.10;;
14247;SDS011;7208;49.826;6.004;2022-07-23T06:02:21;26.27;;;20.23;;
14247;SDS011;7208;49.826;6.004;2022-07-23T06:04:47;26.67;;;19.30;;
14247;SDS011;7208;49.826;6.004;2022-07-23T06:07:13;27.80;;;18.00;;
14247;SDS011;7208;49.826;6.004;2022-07-23T06:09:40;22.20;;;18.17;;
14247;SDS011;7208;49.826;6.004;2022-07-23T06:12:06;22.47;;;17.13;;
14247;SDS011;7208;49.826;6.004;2022-07-23T06:14:32;22.53;;;18.40;;
14247;SDS011;7208;49.826;6.004;2022-07-23T06:16:58;21.83;;;18.20;;
14247;SDS011;7208;49.826;6.004;2022-07-23T06:19:24;23.33;;;18.17;;
14247;SDS011;7208;49.826;6.004;2022-07-23T06:21:50;22.10;;;17.07;;
14247;SDS011;7208;49.826;6.004;2022-07-23T06:24:16;26.50;;;17.57;;
14247;SDS011;7208;49.826;6.004;2022-07-23T06:26:42;25.90;;;17.77;;
14247;SDS011;7208;49.826;6.004;2022-07-23T06:29:09;23.73;;;18.67;;
14247;SDS011;7208;49.826;6.004;2022-07-23T06:31:35;23.13;;;17.80;;
14247;SDS011;7208;49.826;6.004;2022-07-23T06:34:01;26.00;;;18.80;;
14247;SDS011;7208;49.826;6.004;2022-07-23T06:36:28;21.97;;;18.97;;
14247;SDS011;7208;49.826;6.004;2022-07-23T06:38:54;27.87;;;19.77;;
14247;SDS011;7208;49.826;6.004;2022-07-23T06:41:20;24.43;;;19.00;;
14247;SDS011;7208;49.826;6.004;2022-07-23T06:43:47;23.60;;;19.90;;
14247;SDS011;7208;49.826;6.004;2022-07-23T06:46:13;22.27;;;17.83;;
14247;SDS011;7208;49.826;6.004;2022-07-23T06:48:39;22.80;;;17.43;;
14247;SDS011;7208;49.826;6.004;2022-07-23T06:51:05;25.33;;;19.03;;
14247;SDS011;7208;49.826;6.004;2022-07-23T06:53:31;19.97;;;17.87;;
14247;SDS011;7208;49.826;6.004;2022-07-23T06:55:57;21.07;;;17.93;;
14247;SDS011;7208;49.826;6.004;2022-07-23T06:58:24;23.27;;;18.33;;
14247;SDS011;7208;49.826;6.004;2022-07-23T07:00:50;22.63;;;17.10;;
14247;SDS011;7208;49.826;6.004;2022-07-23T07:03:17;21.87;;;17.97;;
14247;SDS011;7208;49.826;6.004;2022-07-23T07:05:43;20.90;;;18.43;;
14247;SDS011;7208;49.826;6.004;2022-07-23T07:08:09;23.87;;;18.53;;
14247;SDS011;7208;49.826;6.004;2022-07-23T07:10:35;24.43;;;19.70;;
14247;SDS011;7208;49.826;6.004;2022-07-23T07:13:01;23.53;;;18.47;;
14247;SDS011;7208;49.826;6.004;2022-07-23T07:15:27;23.43;;;19.27;;
14247;SDS011;7208;49.826;6.004;2022-07-23T07:17:53;23.80;;;18.37;;
14247;SDS011;7208;49.826;6.004;2022-07-23T07:20:19;23.13;;;19.20;;
14247;SDS011;7208;49.826;6.004;2022-07-23T07:22:45;23.97;;;18.50;;
14247;SDS011;7208;49.826;6.004;2022-07-23T07:25:11;22.47;;;19.63;;
14247;SDS011;7208;49.826;6.004;2022-07-23T07:27:37;22.40;;;18.33;;
14247;SDS011;7208;49.826;6.004;2022-07-23T07:30:04;20.47;;;17.10;;
14247;SDS011;7208;49.826;6.004;2022-07-23T07:32:30;21.23;;;17.97;;
14247;SDS011;7208;49.826;6.004;2022-07-23T07:34:57;18.90;;;16.90;;
14247;SDS011;7208;49.826;6.004;2022-07-23T07:37:23;21.20;;;17.27;;
14247;SDS011;7208;49.826;6.004;2022-07-23T07:39:49;20.30;;;16.10;;
14247;SDS011;7208;49.826;6.004;2022-07-23T07:42:16;19.67;;;16.97;;
14247;SDS011;7208;49.826;6.004;2022-07-23T07:44:42;17.63;;;15.67;;
14247;SDS011;7208;49.826;6.004;2022-07-23T07:47:08;19.13;;;16.67;;
14247;SDS011;7208;49.826;6.004;2022-07-23T07:49:34;17.50;;;15.70;;
14247;SDS011;7208;49.826;6.004;2022-07-23T07:52:00;17.73;;;15.87;;
14247;SDS011;7208;49.826;6.004;2022-07-23T07:54:26;17.13;;;15.10;;
14247;SDS011;7208;49.826;6.004;2022-07-23T07:56:51;16.47;;;14.77;;
14247;SDS011;7208;49.826;6.004;2022-07-23T07:59:17;17.70;;;15.20;;
14247;SDS011;7208;49.826;6.004;2022-07-23T08:01:43;16.27;;;14.50;;
14247;SDS011;7208;49.826;6.004;2022-07-23T08:04:09;15.27;;;13.67;;
14247;SDS011;7208;49.826;6.004;2022-07-23T08:06:35;15.17;;;13.53;;
14247;SDS011;7208;49.826;6.004;2022-07-23T08:09:03;14.03;;;12.67;;
14247;SDS011;7208;49.826;6.004;2022-07-23T08:11:29;14.00;;;12.63;;
14247;SDS011;7208;49.826;6.004;2022-07-23T08:13:55;14.90;;;13.40;;
14247;SDS011;7208;49.826;6.004;2022-07-23T08:16:21;12.80;;;11.17;;
14247;SDS011;7208;49.826;6.004;2022-07-23T08:18:47;13.67;;;12.47;;
14247;SDS011;7208;49.826;6.004;2022-07-23T08:21:13;12.70;;;11.60;;
14247;SDS011;7208;49.826;6.004;2022-07-23T08:23:39;12.03;;;10.93;;
14247;SDS011;7208;49.826;6.004;2022-07-23T08:26:05;12.33;;;11.17;;
14247;SDS011;7208;49.826;6.004;2022-07-23T08:28:31;10.87;;;9.97;;
14247;SDS011;7208;49.826;6.004;2022-07-23T08:30:58;10.93;;;9.93;;
14247;SDS011;7208;49.826;6.004;2022-07-23T08:33:24;10.23;;;9.23;;
14247;SDS011;7208;49.826;6.004;2022-07-23T08:35:50;14.50;;;13.00;;
14247;SDS011;7208;49.826;6.004;2022-07-23T08:38:18;13.07;;;11.77;;
14247;SDS011;7208;49.826;6.004;2022-07-23T08:40:49;14.87;;;13.43;;
14247;SDS011;7208;49.826;6.004;2022-07-23T08:43:16;12.67;;;11.40;;
14247;SDS011;7208;49.826;6.004;2022-07-23T08:45:46;13.93;;;12.57;;
14247;SDS011;7208;49.826;6.004;2022-07-23T08:48:13;14.90;;;13.50;;
14247;SDS011;7208;49.826;6.004;2022-07-23T08:50:43;14.50;;;13.07;;
14247;SDS011;7208;49.826;6.004;2022-07-23T08:53:10;13.90;;;12.55;;
14247;SDS011;7208;49.826;6.004;2022-07-23T08:55:36;14.03;;;12.40;;
14247;SDS011;7208;49.826;6.004;2022-07-23T08:58:02;13.07;;;11.53;;
14247;SDS011;7208;49.826;6.004;2022-07-23T09:00:28;13.63;;;12.23;;
14247;SDS011;7208;49.826;6.004;2022-07-23T09:02:54;13.03;;;11.73;;
14247;SDS011;7208;49.826;6.004;2022-07-23T09:05:20;12.10;;;10.93;;
14247;SDS011;7208;49.826;6.004;2022-07-23T09:10:56;11.83;;;10.67;;
14247;SDS011;7208;49.826;6.004;2022-07-23T09:13:23;11.57;;;10.48;;
14247;SDS011;7208;49.826;6.004;2022-07-23T09:15:50;12.70;;;11.02;;
14247;SDS011;7208;49.826;6.004;2022-07-23T09:18:16;11.75;;;10.43;;
14247;SDS011;7208;49.826;6.004;2022-07-23T09:20:45;13.35;;;11.95;;
14247;SDS011;7208;49.826;6.004;2022-07-23T09:23:11;12.15;;;10.90;;
14247;SDS011;7208;49.826;6.004;2022-07-23T09:25:37;12.57;;;11.27;;
14247;SDS011;7208;49.826;6.004;2022-07-23T09:28:03;10.85;;;9.85;;
14247;SDS011;7208;49.826;6.004;2022-07-23T09:30:32;10.50;;;9.50;;
14247;SDS011;7208;49.826;6.004;2022-07-23T09:33:11;11.02;;;10.07;;
14247;SDS011;7208;49.826;6.004;2022-07-23T09:38:09;10.13;;;9.10;;
14247;SDS011;7208;49.826;6.004;2022-07-23T09:40:35;10.77;;;9.77;;
14247;SDS011;7208;49.826;6.004;2022-07-23T09:43:01;11.00;;;10.02;;
14247;SDS011;7208;49.826;6.004;2022-07-23T09:45:27;11.05;;;10.13;;
14247;SDS011;7208;49.826;6.004;2022-07-23T09:48:09;10.07;;;9.07;;
14247;SDS011;7208;49.826;6.004;2022-07-23T09:50:36;11.07;;;9.98;;
14247;SDS011;7208;49.826;6.004;2022-07-23T09:53:02;9.98;;;9.07;;
14247;SDS011;7208;49.826;6.004;2022-07-23T09:55:35;9.48;;;8.68;;
14247;SDS011;7208;49.826;6.004;2022-07-23T09:58:02;10.10;;;9.15;;
14247;SDS011;7208;49.826;6.004;2022-07-23T10:00:28;10.98;;;9.98;;
14247;SDS011;7208;49.826;6.004;2022-07-23T10:02:55;10.43;;;9.52;;
14247;SDS011;7208;49.826;6.004;2022-07-23T10:05:21;12.15;;;10.88;;
14247;SDS011;7208;49.826;6.004;2022-07-23T10:07:49;11.00;;;9.93;;
14247;SDS011;7208;49.826;6.004;2022-07-23T10:10:16;10.82;;;9.77;;
14247;SDS011;7208;49.826;6.004;2022-07-23T10:12:43;10.25;;;9.23;;
14247;SDS011;7208;49.826;6.004;2022-07-23T10:15:15;9.82;;;8.93;;
14247;SDS011;7208;49.826;6.004;2022-07-23T10:17:41;9.15;;;8.35;;
14247;SDS011;7208;49.826;6.004;2022-07-23T10:20:07;8.98;;;8.18;;
14247;SDS011;7208;49.826;6.004;2022-07-23T10:22:35;9.02;;;8.25;;
14247;SDS011;7208;49.826;6.004;2022-07-23T10:30:02;8.52;;;7.90;;
14247;SDS011;7208;49.826;6.004;2022-07-23T10:38:20;9.45;;;8.65;;
14247;SDS011;7208;49.826;6.004;2022-07-23T10:41:01;7.63;;;6.93;;
14247;SDS011;7208;49.826;6.004;2022-07-23T10:43:27;7.90;;;7.28;;
14247;SDS011;7208;49.826;6.004;2022-07-23T10:45:54;7.53;;;6.97;;
14247;SDS011;7208;49.826;6.004;2022-07-23T10:48:24;7.60;;;7.00;;
14247;SDS011;7208;49.826;6.004;2022-07-23T10:51:11;7.38;;;6.82;;
14247;SDS011;7208;49.826;6.004;2022-07-23T10:56:15;8.55;;;7.75;;
14247;SDS011;7208;49.826;6.004;2022-07-23T10:58:50;9.57;;;8.57;;
14247;SDS011;7208;49.826;6.004;2022-07-23T11:04:16;8.23;;;7.53;;
14247;SDS011;7208;49.826;6.004;2022-07-23T11:09:24;9.65;;;8.85;;
14247;SDS011;7208;49.826;6.004;2022-07-23T11:17:23;8.40;;;7.70;;
14247;SDS011;7208;49.826;6.004;2022-07-23T11:22:35;8.55;;;7.75;;
14247;SDS011;7208;49.826;6.004;2022-07-23T11:25:01;9.00;;;8.15;;
14247;SDS011;7208;49.826;6.004;2022-07-23T11:27:44;8.35;;;7.55;;
14247;SDS011;7208;49.826;6.004;2022-07-23T11:30:56;8.35;;;7.57;;
14247;SDS011;7208;49.826;6.004;2022-07-23T11:35:35;8.00;;;7.40;;
14247;SDS011;7208;49.826;6.004;2022-07-23T11:38:11;8.55;;;7.85;;
14247;SDS011;7208;49.826;6.004;2022-07-23T11:40:38;8.68;;;8.02;;
14247;SDS011;7208;49.826;6.004;2022-07-23T11:43:06;8.60;;;7.90;;
14247;SDS011;7208;49.826;6.004;2022-07-23T11:45:37;8.05;;;7.35;;
14247;SDS011;7208;49.826;6.004;2022-07-23T11:48:04;8.77;;;7.95;;
14247;SDS011;7208;49.826;6.004;2022-07-23T11:50:30;10.00;;;9.20;;
14247;SDS011;7208;49.826;6.004;2022-07-23T11:52:57;8.38;;;7.63;;
14247;SDS011;7208;49.826;6.004;2022-07-23T11:55:23;8.70;;;8.00;;
14247;SDS011;7208;49.826;6.004;2022-07-23T11:57:50;7.45;;;6.85;;
14247;SDS011;7208;49.826;6.004;2022-07-23T12:00:17;6.93;;;6.22;;
14247;SDS011;7208;49.826;6.004;2022-07-23T12:02:48;7.07;;;6.55;;
14247;SDS011;7208;49.826;6.004;2022-07-23T12:05:18;7.32;;;6.68;;
14247;SDS011;7208;49.826;6.004;2022-07-23T12:07:45;7.53;;;6.45;;
14247;SDS011;7208;49.826;6.004;2022-07-23T12:12:41;7.38;;;6.80;;
14247;SDS011;7208;49.826;6.004;2022-07-23T12:15:08;8.35;;;7.65;;
14247;SDS011;7208;49.826;6.004;2022-07-23T12:17:35;7.70;;;7.10;;
14247;SDS011;7208;49.826;6.004;2022-07-23T12:20:03;8.23;;;7.63;;
14247;SDS011;7208;49.826;6.004;2022-07-23T12:22:37;8.38;;;7.57;;
14247;SDS011;7208;49.826;6.004;2022-07-23T12:25:06;9.27;;;8.48;;
14247;SDS011;7208;49.826;6.004;2022-07-23T12:27:32;8.00;;;7.40;;
14247;SDS011;7208;49.826;6.004;2022-07-23T12:29:58;8.98;;;8.07;;
14247;SDS011;7208;49.826;6.004;2022-07-23T12:32:26;8.18;;;7.57;;
14247;SDS011;7208;49.826;6.004;2022-07-23T12:35:05;8.40;;;7.75;;
14247;SDS011;7208;49.826;6.004;2022-07-23T12:37:33;8.98;;;8.18;;
14247;SDS011;7208;49.826;6.004;2022-07-23T12:40:19;9.43;;;8.15;;
14247;SDS011;7208;49.826;6.004;2022-07-23T12:42:49;8.13;;;7.43;;
14247;SDS011;7208;49.826;6.004;2022-07-23T12:45:15;7.40;;;6.80;;
14247;SDS011;7208;49.826;6.004;2022-07-23T12:47:58;9.10;;;8.35;;
14247;SDS011;7208;49.826;6.004;2022-07-23T12:53:13;8.20;;;7.40;;
14247;SDS011;7208;49.826;6.004;2022-07-23T12:55:40;7.78;;;7.07;;
14247;SDS011;7208;49.826;6.004;2022-07-23T12:58:08;8.48;;;7.88;;
14247;SDS011;7208;49.826;6.004;2022-07-23T13:03:38;8.23;;;7.50;;
14247;SDS011;7208;49.826;6.004;2022-07-23T13:06:06;8.35;;;7.60;;
14247;SDS011;7208;49.826;6.004;2022-07-23T13:08:33;7.45;;;6.85;;
14247;SDS011;7208;49.826;6.004;2022-07-23T13:10:59;7.15;;;6.47;;
14247;SDS011;7208;49.826;6.004;2022-07-23T13:13:26;7.22;;;6.72;;
14247;SDS011;7208;49.826;6.004;2022-07-23T13:15:53;7.53;;;7.03;;
14247;SDS011;7208;49.826;6.004;2022-07-23T13:18:19;7.43;;;6.82;;
14247;SDS011;7208;49.826;6.004;2022-07-23T13:20:46;7.80;;;7.20;;
14247;SDS011;7208;49.826;6.004;2022-07-23T13:23:12;6.65;;;6.13;;
14247;SDS011;7208;49.826;6.004;2022-07-23T13:25:38;6.82;;;6.22;;
14247;SDS011;7208;49.826;6.004;2022-07-23T13:28:04;5.60;;;5.18;;
14247;SDS011;7208;49.826;6.004;2022-07-23T13:30:31;5.55;;;5.05;;
14247;SDS011;7208;49.826;6.004;2022-07-23T13:32:57;6.43;;;5.93;;
14247;SDS011;7208;49.826;6.004;2022-07-23T13:35:23;5.93;;;5.38;;
14247;SDS011;7208;49.826;6.004;2022-07-23T13:37:49;6.10;;;5.63;;
14247;SDS011;7208;49.826;6.004;2022-07-23T13:40:15;6.45;;;5.85;;
14247;SDS011;7208;49.826;6.004;2022-07-23T13:42:41;5.03;;;4.72;;
14247;SDS011;7208;49.826;6.004;2022-07-23T13:45:07;5.95;;;5.43;;
14247;SDS011;7208;49.826;6.004;2022-07-23T13:47:33;5.15;;;4.75;;
14247;SDS011;7208;49.826;6.004;2022-07-23T13:49:59;6.28;;;5.75;;
14247;SDS011;7208;49.826;6.004;2022-07-23T13:52:25;6.65;;;6.07;;
14247;SDS011;7208;49.826;6.004;2022-07-23T13:54:51;6.45;;;5.95;;
14247;SDS011;7208;49.826;6.004;2022-07-23T13:57:17;5.88;;;5.28;;
14247;SDS011;7208;49.826;6.004;2022-07-23T13:59:43;6.28;;;5.78;;
14247;SDS011;7208;49.826;6.004;2022-07-23T14:02:09;5.63;;;5.13;;
14247;SDS011;7208;49.826;6.004;2022-07-23T14:04:37;5.53;;;5.07;;
14247;SDS011;7208;49.826;6.004;2022-07-23T14:07:03;5.05;;;4.65;;
14247;SDS011;7208;49.826;6.004;2022-07-23T14:09:29;5.68;;;5.22;;
14247;SDS011;7208;49.826;6.004;2022-07-23T14:11:58;5.60;;;5.00;;
14247;SDS011;7208;49.826;6.004;2022-07-23T14:14:24;5.75;;;5.30;;
14247;SDS011;7208;49.826;6.004;2022-07-23T14:16:50;5.00;;;4.60;;
14247;SDS011;7208;49.826;6.004;2022-07-23T14:19:16;6.55;;;4.15;;
14247;SDS011;7208;49.826;6.004;2022-07-23T14:21:42;5.70;;;5.03;;
14247;SDS011;7208;49.826;6.004;2022-07-23T14:24:09;4.68;;;4.38;;
14247;SDS011;7208;49.826;6.004;2022-07-23T14:26:35;4.60;;;4.20;;
14247;SDS011;7208;49.826;6.004;2022-07-23T14:29:01;4.47;;;4.15;;
14247;SDS011;7208;49.826;6.004;2022-07-23T14:31:27;4.55;;;4.22;;
14247;SDS011;7208;49.826;6.004;2022-07-23T14:33:53;4.80;;;4.40;;
14247;SDS011;7208;49.826;6.004;2022-07-23T14:36:19;4.22;;;3.92;;
14247;SDS011;7208;49.826;6.004;2022-07-23T14:38:45;3.63;;;3.42;;
14247;SDS011;7208;49.826;6.004;2022-07-23T14:41:11;3.97;;;3.67;;
14247;SDS011;7208;49.826;6.004;2022-07-23T14:43:37;3.55;;;3.30;;
14247;SDS011;7208;49.826;6.004;2022-07-23T14:46:03;4.55;;;4.15;;
14247;SDS011;7208;49.826;6.004;2022-07-23T14:48:29;3.80;;;3.45;;
14247;SDS011;7208;49.826;6.004;2022-07-23T14:50:55;3.70;;;3.50;;
14247;SDS011;7208;49.826;6.004;2022-07-23T14:53:22;5.15;;;3.80;;
14247;SDS011;7208;49.826;6.004;2022-07-23T14:55:47;4.55;;;3.45;;
14247;SDS011;7208;49.826;6.004;2022-07-23T14:58:13;3.90;;;3.53;;
14247;SDS011;7208;49.826;6.004;2022-07-23T15:00:40;3.72;;;3.45;;
14247;SDS011;7208;49.826;6.004;2022-07-23T15:03:06;4.45;;;4.05;;
14247;SDS011;7208;49.826;6.004;2022-07-23T15:05:32;4.15;;;3.85;;
14247;SDS011;7208;49.826;6.004;2022-07-23T15:07:58;4.45;;;4.15;;
14247;SDS011;7208;49.826;6.004;2022-07-23T15:10:24;4.15;;;3.80;;
14247;SDS011;7208;49.826;6.004;2022-07-23T15:12:50;4.43;;;4.13;;
14247;SDS011;7208;49.826;6.004;2022-07-23T15:15:16;4.30;;;4.00;;
14247;SDS011;7208;49.826;6.004;2022-07-23T15:17:43;4.50;;;4.20;;
14247;SDS011;7208;49.826;6.004;2022-07-23T15:20:09;4.13;;;3.83;;
14247;SDS011;7208;49.826;6.004;2022-07-23T15:22:36;4.50;;;4.10;;
14247;SDS011;7208;49.826;6.004;2022-07-23T15:25:02;4.38;;;4.07;;